Time;durP1;ratioP1;P1;durP2;ratioP2;P2;SDS_P1;SDS_P2;PMS_P1;PMS_P2;Temp;Humidity;BMP_temperature;BMP_pressure;BME280_temperature;BME280_humidity;BME280_pressure;Samples;Min_cycle;Max_cycle;Signal;HPM_P1;HPM_P2
2023/06/28 00:13:30;;;;;;;10.63;4.35;;;;;;;11.95;74.25;99987.22;30872306;28;97300;-70
2023/06/28 00:28:30;;;;;;;4.72;3.10;;;;;;;11.91;74.41;99978.72;30870367;28;110506;-70
2023/06/28 00:43:31;;;;;;;6.00;3.35;;;;;;;11.89;74.33;99980.75;30869964;28;103476;-70
2023/06/28 00:58:31;;;;;;;5.93;3.10;;;;;;;11.82;74.56;99988.69;30866675;28;112485;-69
2023/06/28 01:13:33;;;;;;;6.22;2.97;;;;;;;11.73;75.02;99989.75;30865615;28;97375;-70
2023/06/28 01:28:34;;;;;;;5.03;3.00;;;;;;;11.62;75.48;99974.22;30864742;28;97898;-70
2023/06/28 01:43:35;;;;;;;4.37;3.00;;;;;;;11.51;75.22;99970.97;30864618;28;96995;-68
2023/06/28 01:58:35;;;;;;;7.78;2.70;;;;;;;11.45;75.39;99957.53;30861288;28;96762;-71
2023/06/28 02:13:35;;;;;;;4.43;2.50;;;;;;;11.37;76.44;99966.41;30860234;28;112795;-68
2023/06/28 02:28:36;;;;;;;5.97;2.40;;;;;;;11.36;75.52;99975.47;30859265;28;96719;-71
2023/06/28 02:43:36;;;;;;;6.00;2.80;;;;;;;11.31;76.62;99975.16;30858426;28;100737;-71
2023/06/28 02:58:36;;;;;;;6.47;2.90;;;;;;;11.55;75.92;99975.94;30857243;28;96819;-69
2023/06/28 03:13:37;;;;;;;9.60;3.13;;;;;;;11.85;76.29;99990.13;30854043;28;109018;-70
2023/06/28 03:28:37;;;;;;;6.53;3.35;;;;;;;11.91;75.63;99999.25;30852113;28;109452;-71
2023/06/28 03:43:37;;;;;;;8.90;2.92;;;;;;;12.21;76.19;100007.31;30850808;28;102268;-71
2023/06/28 03:58:38;;;;;;;4.05;2.15;;;;;;;12.70;74.86;100009.31;30848770;28;105807;-68
2023/06/28 04:13:38;;;;;;;7.72;2.22;;;;;;;12.61;74.19;100013.94;30849493;28;100630;-70
2023/06/28 04:28:39;;;;;;;6.03;2.55;;;;;;;12.93;74.65;100009.16;30859677;28;97367;-70
2023/06/28 04:43:40;;;;;;;5.25;2.13;;;;;;;13.29;73.87;100023.50;30867563;28;110498;-71
2023/06/28 04:58:41;;;;;;;4.83;1.97;;;;;;;13.58;73.14;100005.66;30865089;28;96817;-70
2023/06/28 05:13:41;;;;;;;4.73;2.00;;;;;;;13.83;72.67;99990.78;30792074;28;97998;-72
2023/06/28 05:28:41;;;;;;;9.10;2.13;;;;;;;14.37;72.81;99991.06;30821403;28;104505;-71
2023/06/28 05:43:43;;;;;;;3.88;2.20;;;;;;;14.97;72.23;100001.16;30816036;28;111587;-68
2023/06/28 05:58:44;;;;;;;2.73;1.70;;;;;;;15.70;71.01;99997.66;30827972;28;98212;-68
2023/06/28 06:13:44;;;;;;;7.47;3.00;;;;;;;16.04;68.89;100003.81;30823143;28;105024;-68
2023/06/28 06:28:44;;;;;;;6.50;1.88;;;;;;;16.36;68.24;100006.59;30851581;28;97293;-68
2023/06/28 06:43:45;;;;;;;6.07;1.88;;;;;;;17.16;66.87;100011.59;30853344;28;97100;-68
2023/06/28 06:58:45;;;;;;;3.22;1.42;;;;;;;18.33;65.11;99990.38;30851793;28;116689;-67
2023/06/28 07:13:45;;;;;;;8.20;1.58;;;;;;;19.05;61.33;99995.03;30850875;28;105386;-66
2023/06/28 07:28:46;;;;;;;4.50;1.40;;;;;;;19.73;57.76;99995.59;30849994;28;97501;-68
2023/06/28 07:43:46;;;;;;;4.03;1.35;;;;;;;19.99;53.21;99998.91;30850340;28;96670;-67
2023/06/28 07:58:46;;;;;;;5.55;1.45;;;;;;;20.10;51.74;99989.94;30852985;28;97170;-66
2023/06/28 08:13:47;;;;;;;2.33;1.20;;;;;;;20.65;47.25;100007.53;30868655;28;110285;-67
2023/06/28 08:28:47;;;;;;;5.73;1.33;;;;;;;21.29;44.55;99993.78;30866541;28;97396;-66
2023/06/28 08:43:53;;;;;;;3.37;1.00;;;;;;;22.39;41.25;99967.13;30866382;28;108670;-66
2023/06/28 08:58:54;;;;;;;5.03;1.13;;;;;;;22.35;40.99;99975.00;30863681;28;97141;-66
2023/06/28 09:13:55;;;;;;;3.50;1.20;;;;;;;22.60;39.61;99968.19;30863174;28;96932;-66
2023/06/28 09:29:08;;;;;;;6.23;1.47;;;;;;;22.46;39.29;99986.78;30861060;28;96839;-66
2023/06/28 09:44:10;;;;;;;3.87;1.00;;;;;;;20.95;42.57;100006.47;30861275;28;97362;-67
2023/06/28 09:59:11;;;;;;;6.87;1.43;;;;;;;19.51;45.47;100012.38;30857405;28;96739;-67
2023/06/28 10:14:14;;;;;;;5.17;1.40;;;;;;;18.66;48.53;100013.41;30855952;28;97090;-67
2023/06/28 10:29:15;;;;;;;10.33;1.80;;;;;;;18.54;49.93;100011.50;30854751;28;97277;-66
2023/06/28 10:44:15;;;;;;;5.67;1.77;;;;;;;18.59;49.04;100005.44;30855231;28;96767;-67
2023/06/28 10:59:16;;;;;;;4.70;1.50;;;;;;;18.54;48.79;100022.28;30851412;28;97509;-67
2023/06/28 11:14:37;;;;;;;2.17;1.00;;;;;;;18.09;49.89;100036.91;30850325;28;97107;-66
2023/06/28 11:30:03;;;;;;;2.90;1.33;;;;;;;18.48;49.96;100031.28;30851743;28;96859;-65
2023/06/28 11:45:06;;;;;;;4.90;2.07;;;;;;;18.48;50.59;100035.84;30871934;28;97374;-65
2023/06/28 12:00:07;;;;;;;6.53;1.60;;;;;;;18.63;50.39;100035.47;30869948;28;97328;-65
2023/06/28 12:15:12;;;;;;;4.57;1.60;;;;;;;18.39;51.16;100041.53;30867564;28;97136;-67
2023/06/28 12:30:15;;;;;;;4.83;1.73;;;;;;;18.98;50.81;100032.13;30865417;28;96756;-67
2023/06/28 12:45:21;;;;;;;4.57;1.90;;;;;;;20.15;49.56;100025.22;30861596;28;96747;-67
2023/06/28 13:00:21;;;;;;;2.67;1.93;;;;;;;20.52;48.62;100022.16;30861966;28;96794;-67
2023/06/28 13:15:22;;;;;;;6.33;2.00;;;;;;;20.63;48.19;100020.50;30860341;28;96669;-68
2023/06/28 13:30:22;;;;;;;3.67;1.97;;;;;;;21.28;46.94;100021.97;30859901;28;101408;-67
2023/06/28 13:45:22;;;;;;;47.27;18.23;;;;;;;20.69;47.60;100018.72;30858622;28;98038;-67
2023/06/28 14:00:23;;;;;;;3.87;1.80;;;;;;;20.33;49.06;100015.31;30857864;28;97472;-69
2023/06/28 14:15:23;;;;;;;2.83;1.63;;;;;;;20.17;49.64;100022.25;30856274;28;98023;-70
2023/06/28 14:30:24;;;;;;;7.20;2.25;;;;;;;20.19;50.21;100012.84;30853636;28;110368;-69
2023/06/28 14:45:25;;;;;;;4.40;2.07;;;;;;;19.93;50.66;100016.91;30855290;28;96878;-68
2023/06/28 15:00:25;;;;;;;4.07;1.90;;;;;;;19.57;51.66;100016.88;30826688;28;97413;-69
2023/06/28 15:15:28;;;;;;;4.22;1.85;;;;;;;19.56;52.14;100020.63;30774668;28;96873;-68
2023/06/28 15:30:30;;;;;;;6.90;2.00;;;;;;;19.44;52.15;100023.28;30732889;28;97612;-66
2023/06/28 15:45:30;;;;;;;3.00;1.73;;;;;;;19.31;52.97;100022.69;30716735;28;114748;-65
2023/06/28 16:00:30;;;;;;;7.18;2.05;;;;;;;19.16;54.26;100029.34;30717103;28;102693;-66
2023/06/28 16:15:31;;;;;;;5.18;2.17;;;;;;;18.86;55.80;100030.19;30784356;28;97287;-65
2023/06/28 16:30:31;;;;;;;4.50;2.10;;;;;;;18.51;56.90;100028.13;30865378;28;96804;-65
2023/06/28 16:45:31;;;;;;;7.60;2.75;;;;;;;18.17;58.78;100038.47;30866897;28;107533;-65
2023/06/28 17:00:32;;;;;;;13.75;3.53;;;;;;;18.15;59.92;100040.59;30866925;28;96808;-65
2023/06/28 17:15:35;;;;;;;7.20;2.95;;;;;;;18.02;61.42;100035.34;30864759;28;96857;-64
2023/06/28 17:30:36;;;;;;;3.70;2.20;;;;;;;18.01;62.04;100039.88;30862611;28;96779;-65
2023/06/28 17:45:36;;;;;;;4.45;2.42;;;;;;;17.97;62.21;100044.06;30792571;28;97110;-66
2023/06/28 18:00:36;;;;;;;4.72;2.38;;;;;;;18.09;62.02;100046.88;30727987;28;96746;-66
2023/06/28 18:15:37;;;;;;;3.92;2.15;;;;;;;18.13;61.35;100052.66;30726608;28;97055;-66
2023/06/28 18:30:37;;;;;;;4.68;2.67;;;;;;;18.16;61.19;100058.41;30728745;28;97065;-70
2023/06/28 18:45:42;;;;;;;5.57;2.22;;;;;;;18.10;60.50;100076.28;30723611;28;100338;-65
2023/06/28 19:00:42;;;;;;;3.23;2.13;;;;;;;18.13;60.35;100082.31;30724386;28;97314;-65
2023/06/28 19:15:43;;;;;;;3.88;1.95;;;;;;;18.08;60.11;100093.72;30723046;28;97162;-65
2023/06/28 19:30:43;;;;;;;4.28;2.13;;;;;;;17.84;60.38;100109.69;30722932;28;97373;-65
2023/06/28 19:45:43;;;;;;;5.38;2.22;;;;;;;17.78;60.98;100110.53;30794515;28;102098;-67
2023/06/28 20:00:44;;;;;;;3.63;2.15;;;;;;;17.51;61.36;100115.31;30833360;28;107813;-65
2023/06/28 20:15:44;;;;;;;4.72;2.50;;;;;;;17.32;62.28;100117.06;30860519;28;96769;-65
2023/06/28 20:30:44;;;;;;;5.22;2.33;;;;;;;17.03;63.03;100117.47;30860272;28;108090;-64
2023/06/28 20:45:45;;;;;;;4.53;2.70;;;;;;;16.94;63.61;100116.06;30857804;28;96796;-65
2023/06/28 21:00:45;;;;;;;3.55;2.30;;;;;;;16.86;63.98;100125.16;30857519;28;97376;-64
2023/06/28 21:15:46;;;;;;;7.20;2.67;;;;;;;16.95;64.29;100133.00;30855972;28;98211;-65
2023/06/28 21:30:46;;;;;;;6.85;2.75;;;;;;;17.05;64.31;100139.59;30880196;28;96794;-66
2023/06/28 21:45:48;;;;;;;3.78;2.33;;;;;;;17.06;64.09;100146.63;30863334;28;107476;-65
2023/06/28 22:00:48;;;;;;;6.13;2.53;;;;;;;17.04;64.10;100145.19;30860858;28;96925;-66
2023/06/28 22:15:48;;;;;;;6.28;2.58;;;;;;;16.92;64.27;100150.41;30859865;28;96794;-65
2023/06/28 22:30:49;;;;;;;4.75;2.90;;;;;;;16.79;64.36;100167.41;30859754;28;96678;-68
2023/06/28 22:45:49;;;;;;;5.18;2.13;;;;;;;16.53;64.44;100169.13;30858858;28;97429;-65
2023/06/28 23:00:51;;;;;;;4.93;2.70;;;;;;;16.28;65.18;100170.81;30857756;28;96682;-68
2023/06/28 23:15:51;;;;;;;8.63;3.00;;;;;;;16.14;65.66;100170.81;30855296;28;97558;-64
2023/06/28 23:30:52;;;;;;;5.95;2.78;;;;;;;15.97;65.95;100185.72;30855194;28;97415;-64
2023/06/28 23:45:52;;;;;;;5.88;2.97;;;;;;;15.80;66.23;100180.75;30854580;28;97467;-64
